createdAt,value
2022-09-27T00:00:15.082Z,57.46
2022-09-27T00:02:42.152Z,57.44
2022-09-27T00:05:09.295Z,57.40
2022-09-27T00:07:36.230Z,57.46
2022-09-27T00:10:03.948Z,57.68
2022-09-27T00:12:30.885Z,57.64
2022-09-27T00:14:57.867Z,57.65
2022-09-27T00:17:24.699Z,57.73
2022-09-27T00:19:51.584Z,57.55
2022-09-27T00:22:18.519Z,57.74
2022-09-27T00:24:45.389Z,57.75
2022-09-27T00:27:12.261Z,57.64
2022-09-27T00:29:39.224Z,57.72
2022-09-27T00:32:06.294Z,57.60
2022-09-27T00:34:33.159Z,57.84
2022-09-27T00:37:00.107Z,57.94
2022-09-27T00:39:27.286Z,57.84
2022-09-27T00:41:54.835Z,57.85
2022-09-27T00:44:28.811Z,58.03
2022-09-27T00:47:27.597Z,57.97
2022-09-27T00:50:00.518Z,57.99
2022-09-27T00:52:39.355Z,58.18
2022-09-27T00:55:15.882Z,57.81
2022-09-27T00:57:44.919Z,58.21
2022-09-27T01:00:13.599Z,58.09
2022-09-27T01:02:47.588Z,58.21
2022-09-27T01:05:17.832Z,58.28
2022-09-27T01:07:44.718Z,58.20
2022-09-27T01:10:13.261Z,58.16
2022-09-27T01:12:48.565Z,58.18
2022-09-27T01:15:33.803Z,58.33
2022-09-27T01:18:19.113Z,58.29
2022-09-27T01:21:23.246Z,58.50
2022-09-27T01:24:08.900Z,58.33
2022-09-27T01:26:35.763Z,58.33
2022-09-27T01:29:34.629Z,58.50
2022-09-27T01:32:47.901Z,58.57
2022-09-27T01:35:27.537Z,58.53
2022-09-27T01:38:34.674Z,58.55
2022-09-27T01:41:11.110Z,58.49
2022-09-27T01:43:50.665Z,58.60
2022-09-27T01:46:46.800Z,58.61
2022-09-27T01:49:23.306Z,58.46
2022-09-27T01:51:59.188Z,58.58
2022-09-27T01:54:34.297Z,58.57
2022-09-27T01:57:03.509Z,58.40
2022-09-27T01:59:59.669Z,58.66
2022-09-27T02:02:29.232Z,58.59
2022-09-27T02:05:00.506Z,58.73
2022-09-27T02:07:34.589Z,58.58
2022-09-27T02:10:18.429Z,58.59
2022-09-27T02:12:57.654Z,58.73
2022-09-27T02:15:26.935Z,58.94
2022-09-27T02:18:05.769Z,58.75
2022-09-27T02:20:40.493Z,58.80
2022-09-27T02:23:33.458Z,58.84
2022-09-27T02:26:05.344Z,58.99
2022-09-27T02:29:00.365Z,58.87
2022-09-27T02:31:27.334Z,58.92
2022-09-27T02:34:02.939Z,58.94
2022-09-27T02:36:30.673Z,59.02
2022-09-27T02:38:57.547Z,58.91
2022-09-27T02:41:24.457Z,59.07
2022-09-27T02:43:57.455Z,59.03
2022-09-27T02:46:35.425Z,58.95
2022-09-27T02:49:26.533Z,58.98
2022-09-27T02:52:02.142Z,59.17
2022-09-27T02:54:46.907Z,59.08
2022-09-27T02:57:32.443Z,59.06
2022-09-27T02:59:59.263Z,59.40
2022-09-27T03:02:46.364Z,59.19
2022-09-27T03:05:25.551Z,59.10
2022-09-27T03:07:52.514Z,59.08
2022-09-27T03:10:27.137Z,59.33
2022-09-27T03:12:54.764Z,59.26
2022-09-27T03:15:21.609Z,59.28
2022-09-27T03:17:48.503Z,59.07
2022-09-27T03:20:15.388Z,59.36
2022-09-27T03:22:42.577Z,59.36
2022-09-27T03:25:09.962Z,59.10
2022-09-27T03:27:36.866Z,59.26
2022-09-27T03:30:04.545Z,59.09
2022-09-27T03:32:31.809Z,59.34
2022-09-27T03:34:58.643Z,59.22
2022-09-27T03:37:27.324Z,59.63
2022-09-27T03:39:54.182Z,59.59
2022-09-27T03:42:21.005Z,59.30
2022-09-27T03:44:47.901Z,59.27
2022-09-27T03:47:14.750Z,59.57
2022-09-27T03:49:41.636Z,59.28
2022-09-27T03:52:08.488Z,59.62
2022-09-27T03:54:35.342Z,59.70
2022-09-27T03:57:02.216Z,59.39
2022-09-27T03:59:29.274Z,59.40
2022-09-27T04:01:56.606Z,59.37
2022-09-27T04:04:24.057Z,59.43
2022-09-27T04:06:50.979Z,59.60
2022-09-27T04:09:17.895Z,59.49
2022-09-27T04:11:44.800Z,59.61
2022-09-27T04:14:13.252Z,59.57
2022-09-27T04:16:42.810Z,59.67
2022-09-27T04:19:09.770Z,59.62
2022-09-27T04:21:37.133Z,59.59
2022-09-27T04:24:05.619Z,59.09
2022-09-27T04:26:32.529Z,59.44
2022-09-27T04:28:59.507Z,59.42
2022-09-27T04:31:26.535Z,59.40
2022-09-27T04:33:54.932Z,59.55
2022-09-27T04:36:29.076Z,59.43
2022-09-27T04:38:57.778Z,59.44
2022-09-27T04:41:25.825Z,59.26
2022-09-27T04:43:58.243Z,59.34
2022-09-27T04:46:26.516Z,59.45
2022-09-27T04:48:53.583Z,59.39
2022-09-27T04:51:20.511Z,59.27
2022-09-27T04:53:48.249Z,59.19
2022-09-27T04:56:16.170Z,59.26
2022-09-27T04:58:43.072Z,59.28
2022-09-27T05:01:10.363Z,59.35
2022-09-27T05:03:37.859Z,59.47
2022-09-27T05:06:04.977Z,59.72
2022-09-27T05:08:31.950Z,59.67
2022-09-27T05:10:58.811Z,57.98
2022-09-27T05:13:25.780Z,58.98
2022-09-27T05:15:53.175Z,59.14
2022-09-27T05:18:20.049Z,59.50
2022-09-27T05:20:47.005Z,59.71
2022-09-27T05:23:14.100Z,59.57
2022-09-27T05:25:42.683Z,59.92
2022-09-27T05:28:09.784Z,59.79
2022-09-27T05:30:37.016Z,59.64
2022-09-27T05:33:04.196Z,59.72
2022-09-27T05:35:32.023Z,60.10
2022-09-27T05:38:00.595Z,59.80
2022-09-27T05:40:44.887Z,59.83
2022-09-27T05:43:11.971Z,59.57
2022-09-27T05:45:38.925Z,59.57
2022-09-27T05:48:05.941Z,59.74
2022-09-27T05:50:32.990Z,59.64
2022-09-27T05:52:59.891Z,59.58
2022-09-27T05:55:26.907Z,59.67
2022-09-27T05:58:02.585Z,59.47
2022-09-27T06:00:29.909Z,59.56
2022-09-27T06:02:59.144Z,59.33
2022-09-27T06:05:28.361Z,59.46
2022-09-27T06:08:01.096Z,59.53
2022-09-27T06:10:29.279Z,59.37
2022-09-27T06:13:03.448Z,59.44
2022-09-27T06:15:32.372Z,59.32
2022-09-27T06:18:05.499Z,59.41
2022-09-27T06:20:33.193Z,59.34
2022-09-27T06:23:12.948Z,59.69
2022-09-27T06:25:40.870Z,59.98
2022-09-27T06:28:10.364Z,59.70
2022-09-27T06:30:43.002Z,58.18
2022-09-27T06:33:13.416Z,58.82
2022-09-27T06:35:42.917Z,58.90
2022-09-27T06:38:12.675Z,59.08
2022-09-27T06:40:40.093Z,59.38
2022-09-27T06:43:09.592Z,59.38
2022-09-27T06:45:37.699Z,59.66
2022-09-27T06:48:05.942Z,59.62
2022-09-27T06:50:37.990Z,59.67
2022-09-27T06:53:06.763Z,59.48
2022-09-27T06:55:34.364Z,59.45
2022-09-27T06:58:20.707Z,59.52
2022-09-27T07:00:54.365Z,59.57
2022-09-27T07:03:36.495Z,59.61
2022-09-27T07:06:06.648Z,59.53
2022-09-27T07:08:34.435Z,59.71
2022-09-27T07:11:03.955Z,59.84
2022-09-27T07:13:34.704Z,59.50
2022-09-27T07:16:02.284Z,59.94
2022-09-27T07:18:29.516Z,59.82
2022-09-27T07:21:00.096Z,59.80
2022-09-27T07:23:27.863Z,59.81
2022-09-27T07:25:55.006Z,59.83
2022-09-27T07:28:22.551Z,59.77
2022-09-27T07:30:50.121Z,59.85
2022-09-27T07:33:17.242Z,59.71
2022-09-27T07:35:44.462Z,59.81
2022-09-27T07:38:14.310Z,59.69
2022-09-27T07:40:42.164Z,59.75
2022-09-27T07:43:12.635Z,59.53
2022-09-27T07:45:39.867Z,59.79
2022-09-27T07:48:08.149Z,59.66
2022-09-27T07:50:35.574Z,59.46
2022-09-27T07:53:02.687Z,59.66
2022-09-27T07:55:29.784Z,59.57
2022-09-27T07:58:04.714Z,59.53
2022-09-27T08:00:31.637Z,59.74
2022-09-27T08:02:58.659Z,59.62
2022-09-27T08:05:25.865Z,59.56
2022-09-27T08:07:59.054Z,59.33
2022-09-27T08:10:31.686Z,59.29
2022-09-27T08:13:01.354Z,59.44
2022-09-27T08:15:28.899Z,59.28
2022-09-27T08:17:56.013Z,59.26
2022-09-27T08:20:23.219Z,59.22
2022-09-27T08:22:50.222Z,59.48
2022-09-27T08:25:17.980Z,59.51
2022-09-27T08:27:45.259Z,59.29
2022-09-27T08:30:12.436Z,59.19
2022-09-27T08:32:39.536Z,59.22
2022-09-27T08:35:07.705Z,59.19
2022-09-27T08:37:35.650Z,59.07
2022-09-27T08:40:03.518Z,59.26
2022-09-27T08:42:51.299Z,58.95
2022-09-27T08:45:33.147Z,59.01
2022-09-27T08:48:03.323Z,58.89
2022-09-27T08:50:41.896Z,59.07
2022-09-27T08:53:14.951Z,58.85
2022-09-27T08:55:45.880Z,58.97
2022-09-27T08:58:20.292Z,59.21
2022-09-27T09:00:52.195Z,58.95
2022-09-27T09:03:21.573Z,58.79
2022-09-27T09:06:03.792Z,58.48
2022-09-27T09:08:35.637Z,58.64
2022-09-27T09:12:02.553Z,58.70
2022-09-27T09:14:48.717Z,58.54
2022-09-27T09:17:50.974Z,58.66
2022-09-27T09:20:53.237Z,58.51
2022-09-27T09:23:37.026Z,58.57
2022-09-27T09:26:12.876Z,58.49
2022-09-27T09:29:10.389Z,58.93
2022-09-27T09:31:48.053Z,59.12
2022-09-27T09:34:26.345Z,58.41
2022-09-27T09:37:19.354Z,57.52
2022-09-27T09:39:51.971Z,58.63
2022-09-27T09:42:28.421Z,58.61
2022-09-27T09:45:04.341Z,59.74
2022-09-27T09:47:39.962Z,60.09
2022-09-27T09:50:18.759Z,60.36
2022-09-27T09:52:52.080Z,60.66
2022-09-27T09:55:35.441Z,60.08
2022-09-27T09:58:19.673Z,58.67
2022-09-27T10:00:51.208Z,58.66
2022-09-27T10:03:18.669Z,57.60
2022-09-27T10:05:46.784Z,55.95
2022-09-27T10:08:19.701Z,58.10
2022-09-27T10:10:46.872Z,58.96
2022-09-27T10:13:22.651Z,59.11
2022-09-27T10:16:02.857Z,59.51
2022-09-27T10:18:30.509Z,59.63
2022-09-27T10:21:02.470Z,59.79
2022-09-27T10:23:30.442Z,59.85
2022-09-27T10:26:03.885Z,59.55
2022-09-27T10:28:40.090Z,59.61
2022-09-27T10:31:13.976Z,59.78
2022-09-27T10:33:55.276Z,59.65
2022-09-27T10:36:26.856Z,59.67
2022-09-27T10:38:58.872Z,59.68
2022-09-27T10:41:38.854Z,59.38
2022-09-27T10:44:21.019Z,59.56
2022-09-27T10:46:57.075Z,59.52
2022-09-27T10:49:28.965Z,59.45
2022-09-27T10:51:59.477Z,58.63
2022-09-27T10:54:29.709Z,59.41
2022-09-27T10:57:06.839Z,59.39
2022-09-27T10:59:39.910Z,59.59
2022-09-27T11:02:20.302Z,59.75
2022-09-27T11:05:15.268Z,59.52
2022-09-27T11:07:53.194Z,59.36
2022-09-27T11:10:36.936Z,59.59
2022-09-27T11:13:15.206Z,59.45
2022-09-27T11:15:54.286Z,59.35
2022-09-27T11:18:42.736Z,59.40
2022-09-27T11:21:28.076Z,59.67
2022-09-27T11:23:58.091Z,59.81
2022-09-27T11:26:50.645Z,60.07
2022-09-27T11:30:02.298Z,60.13
2022-09-27T11:32:39.937Z,60.32
2022-09-27T11:35:42.489Z,60.29
2022-09-27T11:38:51.538Z,60.21
2022-09-27T11:41:39.241Z,60.09
2022-09-27T11:44:26.351Z,59.89
2022-09-27T11:47:27.559Z,59.72
2022-09-27T11:50:36.089Z,59.64
2022-09-27T11:53:27.896Z,59.66
2022-09-27T11:56:37.837Z,59.48
2022-09-27T11:59:29.578Z,59.44
2022-09-27T12:02:02.645Z,59.60
2022-09-27T12:04:44.826Z,59.60
2022-09-27T12:07:33.274Z,59.38
2022-09-27T12:10:10.051Z,59.44
2022-09-27T12:12:41.730Z,59.37
2022-09-27T12:15:22.060Z,59.44
2022-09-27T12:17:56.923Z,58.98
2022-09-27T12:20:28.068Z,58.88
2022-09-27T12:22:59.604Z,58.85
2022-09-27T12:25:32.484Z,58.69
2022-09-27T12:28:18.592Z,58.43
2022-09-27T12:31:11.052Z,58.39
2022-09-27T12:33:52.312Z,58.22
2022-09-27T12:36:26.217Z,58.32
2022-09-27T12:39:02.601Z,58.32
2022-09-27T12:41:36.721Z,58.06
2022-09-27T12:44:03.838Z,57.89
2022-09-27T12:46:42.814Z,57.78
2022-09-27T12:49:38.835Z,57.73
2022-09-27T12:52:12.334Z,57.56
2022-09-27T12:55:01.450Z,57.26
2022-09-27T12:58:00.180Z,57.39
2022-09-27T13:00:38.610Z,57.23
2022-09-27T13:03:27.311Z,57.11
2022-09-27T13:06:32.521Z,57.08
2022-09-27T13:09:02.424Z,56.77
2022-09-27T13:11:54.080Z,56.55
2022-09-27T13:14:26.134Z,56.56
2022-09-27T13:16:53.460Z,56.27
2022-09-27T13:19:43.260Z,56.31
2022-09-27T13:22:28.652Z,56.18
2022-09-27T13:24:56.397Z,56.10
2022-09-27T13:27:26.792Z,55.89
2022-09-27T13:30:16.844Z,55.87
2022-09-27T13:33:14.389Z,55.57
2022-09-27T13:35:41.705Z,55.45
2022-09-27T13:38:25.209Z,55.26
2022-09-27T13:40:53.439Z,55.20
2022-09-27T13:43:28.667Z,54.95
2022-09-27T13:45:58.837Z,54.96
2022-09-27T13:48:37.921Z,55.09
2022-09-27T13:51:18.403Z,55.12
2022-09-27T13:53:57.483Z,54.93
2022-09-27T13:56:47.039Z,55.02
2022-09-27T13:59:21.545Z,54.99
2022-09-27T14:02:30.185Z,54.88
2022-09-27T14:05:00.186Z,54.58
2022-09-27T14:07:37.440Z,54.71
2022-09-27T14:10:06.077Z,54.60
2022-09-27T14:12:37.258Z,54.53
2022-09-27T14:15:05.119Z,54.51
2022-09-27T14:17:33.383Z,54.30
2022-09-27T14:20:01.697Z,54.23
2022-09-27T14:22:28.899Z,53.98
2022-09-27T14:24:57.371Z,54.00
2022-09-27T14:27:26.735Z,54.01
2022-09-27T14:30:15.968Z,54.16
2022-09-27T14:32:50.845Z,53.72
2022-09-27T14:35:42.095Z,53.35
2022-09-27T14:38:36.415Z,53.38
2022-09-27T14:41:04.972Z,53.26
2022-09-27T14:43:35.692Z,53.34
2022-09-27T14:46:07.996Z,53.27
2022-09-27T14:48:39.393Z,53.21
2022-09-27T14:51:14.557Z,53.06
2022-09-27T14:53:51.255Z,53.34
2022-09-27T14:56:23.169Z,53.07
2022-09-27T14:58:57.319Z,52.99
2022-09-27T15:01:24.812Z,53.07
2022-09-27T15:03:53.906Z,52.75
2022-09-27T15:06:21.762Z,52.60
2022-09-27T15:08:52.737Z,52.65
2022-09-27T15:11:21.271Z,52.61
2022-09-27T15:13:53.254Z,52.75
2022-09-27T15:16:24.881Z,52.64
2022-09-27T15:19:17.672Z,52.76
2022-09-27T15:21:45.654Z,52.73
2022-09-27T15:24:36.559Z,52.58
2022-09-27T15:27:05.490Z,52.73
2022-09-27T15:29:32.709Z,52.71
2022-09-27T15:32:08.491Z,52.95
2022-09-27T15:34:37.672Z,52.72
2022-09-27T15:37:09.428Z,53.02
2022-09-27T15:39:38.283Z,52.78
2022-09-27T15:42:14.932Z,52.81
2022-09-27T15:44:52.474Z,52.95
2022-09-27T15:47:40.802Z,53.00
2022-09-27T15:50:32.875Z,52.89
2022-09-27T15:53:06.018Z,53.08
2022-09-27T15:55:35.191Z,53.39
2022-09-27T15:58:28.912Z,53.56
2022-09-27T16:00:58.802Z,53.81
2022-09-27T16:03:27.961Z,53.61
2022-09-27T16:05:59.384Z,53.65
2022-09-27T16:08:27.439Z,53.96
2022-09-27T16:10:57.022Z,53.24
2022-09-27T16:13:30.165Z,52.26
2022-09-27T16:16:00.502Z,51.84
2022-09-27T16:18:30.566Z,52.29
2022-09-27T16:20:59.196Z,52.98
2022-09-27T16:23:26.663Z,53.19
2022-09-27T16:25:54.132Z,53.36
2022-09-27T16:28:21.408Z,53.61
2022-09-27T16:30:48.536Z,53.53
2022-09-27T16:33:15.974Z,53.76
2022-09-27T16:35:43.980Z,53.83
2022-09-27T16:38:11.553Z,53.87
2022-09-27T16:40:39.073Z,53.92
2022-09-27T16:43:08.138Z,53.90
2022-09-27T16:45:37.112Z,54.01
2022-09-27T16:48:04.690Z,54.24
2022-09-27T16:50:50.343Z,54.10
2022-09-27T16:53:17.650Z,54.16
2022-09-27T16:55:44.918Z,54.12
2022-09-27T16:58:12.054Z,54.08
2022-09-27T17:00:41.046Z,54.29
2022-09-27T17:03:09.427Z,54.38
2022-09-27T17:05:36.777Z,54.37
2022-09-27T17:08:05.765Z,54.49
2022-09-27T17:10:33.236Z,54.57
2022-09-27T17:13:02.031Z,54.46
2022-09-27T17:15:29.999Z,54.58
2022-09-27T17:17:57.061Z,54.42
2022-09-27T17:20:24.206Z,54.56
2022-09-27T17:22:51.303Z,54.62
2022-09-27T17:25:19.132Z,54.61
2022-09-27T17:27:46.236Z,54.70
2022-09-27T17:30:13.285Z,54.60
2022-09-27T17:32:40.557Z,54.69
2022-09-27T17:35:09.794Z,54.66
2022-09-27T17:37:37.127Z,54.77
2022-09-27T17:40:06.128Z,54.70
2022-09-27T17:42:34.871Z,54.96
2022-09-27T17:45:02.133Z,54.95
2022-09-27T17:47:47.813Z,54.85
2022-09-27T17:50:28.930Z,54.89
2022-09-27T17:52:59.211Z,54.60
2022-09-27T17:55:28.013Z,54.38
2022-09-27T17:57:55.469Z,54.76
2022-09-27T18:00:22.659Z,54.83
2022-09-27T18:02:50.034Z,55.24
2022-09-27T18:05:21.438Z,55.40
2022-09-27T18:07:48.994Z,55.53
2022-09-27T18:10:18.272Z,55.42
2022-09-27T18:12:46.451Z,55.45
2022-09-27T18:15:13.702Z,55.46
2022-09-27T18:17:42.247Z,55.23
2022-09-27T18:20:10.167Z,55.03
2022-09-27T18:22:38.583Z,55.20
2022-09-27T18:25:06.442Z,55.15
2022-09-27T18:27:35.834Z,55.18
2022-09-27T18:30:04.365Z,55.21
2022-09-27T18:35:12.661Z,55.02
2022-09-27T18:37:42.609Z,55.30
2022-09-27T18:40:12.903Z,55.63
2022-09-27T18:42:40.436Z,55.37
2022-09-27T18:45:08.397Z,55.38
2022-09-27T18:47:35.677Z,55.23
2022-09-27T18:50:04.952Z,55.32
2022-09-27T18:52:32.424Z,55.34
2022-09-27T18:54:59.790Z,55.24
2022-09-27T18:57:33.347Z,55.27
2022-09-27T19:00:04.377Z,55.11
2022-09-27T19:02:33.863Z,54.98
2022-09-27T19:05:01.109Z,55.08
2022-09-27T19:07:28.923Z,55.11
2022-09-27T19:09:56.288Z,54.97
2022-09-27T19:12:23.248Z,54.93
2022-09-27T19:14:51.873Z,55.40
2022-09-27T19:17:18.875Z,55.79
2022-09-27T19:19:46.015Z,55.91
2022-09-27T19:22:13.006Z,56.27
2022-09-27T19:24:40.198Z,56.11
2022-09-27T19:27:07.106Z,56.40
2022-09-27T19:29:35.252Z,56.56
2022-09-27T19:32:02.641Z,56.26
2022-09-27T19:34:29.866Z,56.61
2022-09-27T19:36:57.354Z,56.71
2022-09-27T19:39:24.368Z,57.08
2022-09-27T19:41:51.423Z,57.25
2022-09-27T19:44:18.687Z,57.50
2022-09-27T19:46:46.262Z,57.65
2022-09-27T19:49:13.483Z,57.70
2022-09-27T19:51:40.730Z,58.08
2022-09-27T19:54:11.049Z,57.89
2022-09-27T19:56:38.274Z,57.85
2022-09-27T19:59:07.350Z,57.87
2022-09-27T20:01:35.067Z,57.80
2022-09-27T20:04:02.974Z,57.72
2022-09-27T20:06:30.091Z,57.77
2022-09-27T20:08:57.314Z,57.82
2022-09-27T20:11:25.099Z,57.57
2022-09-27T20:13:53.344Z,57.35
2022-09-27T20:16:23.307Z,57.23
2022-09-27T20:18:53.263Z,57.17
2022-09-27T20:21:23.368Z,57.16
2022-09-27T20:23:55.417Z,56.80
2022-09-27T20:26:25.130Z,57.05
2022-09-27T20:28:54.902Z,56.77
2022-09-27T20:31:24.591Z,56.82
2022-09-27T20:33:52.646Z,56.83
2022-09-27T20:36:25.433Z,55.31
2022-09-27T20:38:59.556Z,55.61
2022-09-27T20:41:35.356Z,55.93
2022-09-27T20:44:07.517Z,55.81
2022-09-27T20:46:36.897Z,56.12
2022-09-27T20:49:07.500Z,56.46
2022-09-27T20:51:36.673Z,55.10
2022-09-27T20:54:05.900Z,54.23
2022-09-27T20:56:39.109Z,53.65
2022-09-27T20:59:12.719Z,53.50
2022-09-27T21:01:46.542Z,53.53
2022-09-27T21:04:15.918Z,53.64
2022-09-27T21:06:44.046Z,53.55
2022-09-27T21:09:17.425Z,53.50
2022-09-27T21:11:46.633Z,53.51
2022-09-27T21:14:15.147Z,53.41
2022-09-27T21:16:43.181Z,53.53
2022-09-27T21:19:11.138Z,53.60
2022-09-27T21:21:43.952Z,53.52
2022-09-27T21:24:12.029Z,53.58
2022-09-27T21:26:39.260Z,53.75
2022-09-27T21:29:08.858Z,53.78
2022-09-27T21:31:36.840Z,53.66
2022-09-27T21:34:05.528Z,53.65
2022-09-27T21:36:35.181Z,53.68
2022-09-27T21:39:03.015Z,53.77
2022-09-27T21:41:30.179Z,53.77
2022-09-27T21:43:57.820Z,54.01
2022-09-27T21:46:29.371Z,54.16
2022-09-27T21:48:58.838Z,53.92
2022-09-27T21:51:32.036Z,54.10
2022-09-27T21:54:01.741Z,54.11
2022-09-27T21:56:32.650Z,54.17
2022-09-27T21:58:59.892Z,54.21
2022-09-27T22:01:30.053Z,54.19
2022-09-27T22:03:58.099Z,54.36
2022-09-27T22:06:27.632Z,54.44
2022-09-27T22:08:56.013Z,54.40
2022-09-27T22:11:34.704Z,54.48
2022-09-27T22:14:01.903Z,54.60
2022-09-27T22:16:30.564Z,54.59
2022-09-27T22:18:58.754Z,54.46
2022-09-27T22:21:28.805Z,54.63
2022-09-27T22:23:58.025Z,54.53
2022-09-27T22:26:27.903Z,54.57
2022-09-27T22:28:56.070Z,54.60
2022-09-27T22:31:23.924Z,54.93
2022-09-27T22:33:54.662Z,54.71
2022-09-27T22:36:22.900Z,54.68
2022-09-27T22:38:50.886Z,54.81
2022-09-27T22:41:18.146Z,54.84
2022-09-27T22:43:45.432Z,54.98
2022-09-27T22:46:13.402Z,54.91
2022-09-27T22:48:40.745Z,55.06
2022-09-27T22:51:10.648Z,54.87
2022-09-27T22:53:38.263Z,55.04
2022-09-27T22:56:25.396Z,55.09
2022-09-27T22:58:52.299Z,55.18
2022-09-27T23:01:22.090Z,55.23
2022-09-27T23:03:51.258Z,55.22
2022-09-27T23:06:19.921Z,55.30
2022-09-27T23:08:47.875Z,55.42
2022-09-27T23:11:20.082Z,55.37
2022-09-27T23:13:48.481Z,55.39
2022-09-27T23:16:20.865Z,55.33
2022-09-27T23:18:48.110Z,55.52
2022-09-27T23:21:15.893Z,55.63
2022-09-27T23:23:47.576Z,55.47
2022-09-27T23:26:16.623Z,55.58
2022-09-27T23:28:43.945Z,55.69
2022-09-27T23:31:13.970Z,55.53
2022-09-27T23:33:43.998Z,55.69
2022-09-27T23:36:15.525Z,55.69
2022-09-27T23:38:43.737Z,55.83
2022-09-27T23:41:10.575Z,55.66
2022-09-27T23:43:38.249Z,55.55
2022-09-27T23:46:06.686Z,55.67
2022-09-27T23:48:34.933Z,55.66
2022-09-27T23:51:03.017Z,55.80
2022-09-27T23:53:30.094Z,55.88
2022-09-27T23:56:06.391Z,55.72
2022-09-27T23:58:37.733Z,55.71
